createdAt,value
2016-08-03T00:01:38.040Z,99.99
2016-08-03T00:02:38.069Z,99.99
2016-08-03T00:03:38.093Z,99.99
2016-08-03T00:04:38.116Z,99.99
2016-08-03T00:05:38.142Z,99.99
2016-08-03T00:06:38.168Z,99.99
2016-08-03T00:07:38.194Z,99.99
2016-08-03T00:08:38.224Z,99.99
2016-08-03T00:09:38.247Z,99.99
2016-08-03T00:10:38.274Z,99.99
2016-08-03T00:11:38.297Z,99.99
2016-08-03T00:12:38.338Z,99.99
2016-08-03T00:14:53.298Z,99.99
2016-08-03T00:15:38.405Z,99.99
2016-08-03T00:16:38.479Z,99.99
2016-08-03T00:17:38.456Z,99.99
2016-08-03T00:18:38.529Z,99.99
2016-08-03T00:19:38.508Z,99.99
2016-08-03T00:20:38.531Z,99.99
2016-08-03T00:21:38.560Z,99.99
2016-08-03T00:22:38.582Z,99.99
2016-08-03T00:23:38.612Z,99.99
2016-08-03T00:24:38.637Z,99.99
2016-08-03T00:25:38.663Z,99.99
2016-08-03T00:26:38.681Z,99.99
2016-08-03T00:27:38.706Z,99.99
2016-08-03T00:29:38.764Z,99.99
2016-08-03T00:30:53.718Z,99.99
2016-08-03T00:31:38.818Z,99.99
2016-08-03T00:32:38.837Z,99.99
2016-08-03T00:33:38.865Z,99.99
2016-08-03T00:34:38.893Z,99.99
2016-08-03T00:35:38.931Z,99.99
2016-08-03T00:36:38.943Z,99.99
2016-08-03T00:37:38.966Z,99.99
2016-08-03T00:38:38.993Z,99.99
2016-08-03T00:39:39.018Z,99.99
2016-08-03T00:40:39.044Z,99.99
2016-08-03T00:41:39.074Z,99.99
2016-08-03T00:42:39.098Z,99.99
2016-08-03T00:44:39.152Z,99.99
2016-08-03T00:45:54.098Z,99.99
2016-08-03T00:46:39.204Z,99.99
2016-08-03T00:48:39.254Z,99.99
2016-08-03T00:49:39.278Z,99.99
2016-08-03T00:50:39.304Z,99.99
2016-08-03T00:51:39.329Z,99.99
2016-08-03T00:52:39.351Z,99.99
2016-08-03T00:53:39.378Z,99.99
2016-08-03T00:54:39.406Z,99.99
2016-08-03T00:55:39.433Z,99.99
2016-08-03T00:56:39.459Z,99.99
2016-08-03T00:57:39.484Z,99.99
2016-08-03T00:59:39.532Z,99.99
2016-08-03T01:00:39.559Z,99.99
2016-08-03T01:01:39.585Z,99.99
2016-08-03T01:02:39.608Z,99.99
2016-08-03T01:03:39.635Z,99.99
2016-08-03T01:04:39.668Z,99.99
2016-08-03T01:05:39.684Z,99.99
2016-08-03T01:06:39.716Z,99.99
2016-08-03T01:07:39.739Z,99.99
2016-08-03T01:08:39.764Z,99.99
2016-08-03T01:09:39.791Z,99.99
2016-08-03T01:10:39.816Z,99.99
2016-08-03T01:11:39.843Z,99.99
2016-08-03T01:12:39.873Z,99.99
2016-08-03T01:13:39.895Z,99.99
2016-08-03T01:14:39.918Z,99.99
2016-08-03T01:15:39.940Z,99.99
2016-08-03T01:16:39.967Z,99.99
2016-08-03T01:17:54.921Z,99.99
2016-08-03T01:18:40.018Z,99.99
2016-08-03T01:19:40.048Z,99.99
2016-08-03T01:20:40.086Z,99.99
2016-08-03T01:21:40.148Z,99.99
2016-08-03T01:22:40.125Z,99.99
2016-08-03T01:23:40.147Z,99.99
2016-08-03T01:24:40.173Z,99.99
2016-08-03T01:25:40.199Z,99.99
2016-08-03T01:26:40.225Z,99.99
2016-08-03T01:27:40.251Z,99.99
2016-08-03T01:28:40.274Z,99.99
2016-08-03T01:29:40.305Z,99.99
2016-08-03T01:32:40.382Z,99.99
2016-08-03T01:33:55.334Z,99.99
2016-08-03T01:34:40.430Z,99.99
2016-08-03T01:35:40.458Z,99.99
2016-08-03T01:36:40.477Z,99.99
2016-08-03T01:37:40.507Z,99.99
2016-08-03T01:38:40.531Z,99.99
2016-08-03T01:39:40.558Z,99.99
2016-08-03T01:40:40.583Z,99.99
2016-08-03T01:41:40.608Z,99.99
2016-08-03T01:42:40.632Z,99.99
2016-08-03T01:43:40.654Z,99.99
2016-08-03T01:44:40.688Z,99.99
2016-08-03T01:45:40.708Z,99.99
2016-08-03T01:46:40.734Z,99.99
2016-08-03T01:47:40.762Z,99.99
2016-08-03T01:48:40.790Z,99.99
2016-08-03T01:49:55.734Z,99.99
2016-08-03T01:50:40.841Z,99.99
2016-08-03T01:51:40.868Z,99.99
2016-08-03T01:52:40.892Z,99.99
2016-08-03T01:53:40.912Z,99.99
2016-08-03T01:54:40.939Z,99.99
2016-08-03T01:55:40.963Z,99.99
2016-08-03T01:56:40.992Z,99.99
2016-08-03T01:57:41.018Z,99.99
2016-08-03T01:58:41.045Z,99.99
2016-08-03T01:59:41.066Z,99.99
2016-08-03T02:00:41.093Z,99.99
2016-08-03T02:01:41.118Z,99.99
2016-08-03T02:02:41.140Z,99.99
2016-08-03T02:03:41.170Z,99.99
2016-08-03T02:04:41.193Z,99.99
2016-08-03T02:05:56.195Z,99.99
2016-08-03T02:06:41.251Z,99.99
2016-08-03T02:07:41.275Z,99.99
2016-08-03T02:08:41.301Z,99.99
2016-08-03T02:09:41.323Z,99.99
2016-08-03T02:10:41.351Z,99.99
2016-08-03T02:11:41.378Z,99.99
2016-08-03T02:12:41.400Z,99.99
2016-08-03T02:13:41.426Z,99.99
2016-08-03T02:14:41.449Z,99.99
2016-08-03T02:15:41.474Z,99.99
2016-08-03T02:16:41.499Z,99.99
2016-08-03T02:17:41.524Z,99.99
2016-08-03T02:19:41.581Z,99.99
2016-08-03T02:20:56.527Z,99.99
2016-08-03T02:21:41.630Z,99.99
2016-08-03T02:22:41.660Z,99.99
2016-08-03T02:23:41.682Z,99.99
2016-08-03T02:24:41.805Z,99.99
2016-08-03T02:25:41.733Z,99.99
2016-08-03T02:26:41.756Z,99.99
2016-08-03T02:27:41.789Z,99.99
2016-08-03T02:28:41.809Z,99.99
2016-08-03T02:29:41.830Z,99.99
2016-08-03T02:30:41.857Z,99.99
2016-08-03T02:31:41.884Z,99.99
2016-08-03T02:32:41.907Z,99.99
2016-08-03T02:33:42.639Z,99.99
2016-08-03T02:34:41.962Z,99.99
2016-08-03T02:35:41.984Z,99.99
2016-08-03T02:37:42.038Z,99.99
2016-08-03T02:38:42.062Z,99.99
2016-08-03T02:39:42.090Z,99.99
2016-08-03T02:40:42.113Z,99.99
2016-08-03T02:41:42.137Z,99.99
2016-08-03T02:42:42.169Z,99.99
2016-08-03T02:43:42.191Z,99.99
2016-08-03T02:44:42.215Z,99.99
2016-08-03T02:45:42.243Z,99.99
2016-08-03T02:46:42.261Z,99.99
2016-08-03T02:47:42.291Z,99.99
2016-08-03T02:48:42.318Z,99.99
2016-08-03T02:50:42.369Z,99.99
2016-08-03T02:51:42.394Z,99.99
2016-08-03T02:52:57.341Z,99.99
2016-08-03T02:53:42.463Z,99.99
2016-08-03T02:54:42.482Z,99.99
2016-08-03T02:55:42.496Z,99.99
2016-08-03T02:56:42.521Z,99.99
2016-08-03T02:57:42.544Z,99.99
2016-08-03T02:58:42.575Z,99.99
2016-08-03T02:59:42.593Z,99.99
2016-08-03T03:00:42.623Z,99.99
2016-08-03T03:01:42.645Z,99.99
2016-08-03T03:02:42.675Z,99.99
2016-08-03T03:03:42.696Z,99.99
2016-08-03T03:04:42.722Z,99.99
2016-08-03T03:05:42.756Z,99.99
2016-08-03T03:06:42.772Z,99.99
2016-08-03T03:07:42.800Z,99.99
2016-08-03T03:08:57.749Z,99.99
2016-08-03T03:09:42.856Z,99.99
2016-08-03T03:10:42.879Z,99.99
2016-08-03T03:11:42.899Z,99.99
2016-08-03T03:12:43.618Z,99.99
2016-08-03T03:13:42.956Z,99.99
2016-08-03T03:14:42.989Z,99.99
2016-08-03T03:15:43.004Z,99.99
2016-08-03T03:16:43.026Z,99.99
2016-08-03T03:17:43.058Z,99.99
2016-08-03T03:18:43.087Z,99.99
2016-08-03T03:19:43.107Z,99.99
2016-08-03T03:20:43.134Z,99.99
2016-08-03T03:21:43.155Z,99.99
2016-08-03T03:22:43.185Z,99.99
2016-08-03T03:23:43.209Z,99.99
2016-08-03T03:24:58.155Z,99.99
2016-08-03T03:25:43.262Z,99.99
2016-08-03T03:26:43.337Z,99.99
2016-08-03T03:27:43.360Z,99.99
2016-08-03T03:28:43.332Z,99.99
2016-08-03T03:29:43.364Z,99.99
2016-08-03T03:30:43.390Z,99.99
2016-08-03T03:31:43.407Z,99.99
2016-08-03T03:32:43.432Z,99.99
2016-08-03T03:33:43.465Z,99.99
2016-08-03T03:34:43.489Z,99.99
2016-08-03T03:35:43.520Z,99.99
2016-08-03T03:36:43.538Z,99.99
2016-08-03T03:37:43.562Z,99.99
2016-08-03T03:38:43.594Z,99.99
2016-08-03T03:39:43.618Z,99.99
2016-08-03T03:40:58.563Z,99.99
2016-08-03T03:41:43.671Z,99.99
2016-08-03T03:42:43.689Z,99.99
2016-08-03T03:43:43.718Z,99.99
2016-08-03T03:44:43.744Z,99.99
2016-08-03T03:45:43.768Z,99.99
2016-08-03T03:46:43.790Z,99.99
2016-08-03T03:47:43.820Z,99.99
2016-08-03T03:48:43.849Z,99.99
2016-08-03T03:49:43.872Z,99.99
2016-08-03T03:50:43.894Z,99.99
2016-08-03T03:51:43.923Z,99.99
2016-08-03T03:52:43.950Z,99.99
2016-08-03T03:53:43.970Z,99.99
2016-08-03T03:54:44.003Z,99.99
2016-08-03T03:55:58.948Z,99.99
2016-08-03T03:56:44.050Z,99.99
2016-08-03T03:57:44.073Z,99.99
2016-08-03T03:58:44.104Z,99.99
2016-08-03T03:59:44.131Z,99.99
2016-08-03T04:00:44.151Z,99.99
2016-08-03T04:01:44.179Z,99.99
2016-08-03T04:02:44.203Z,99.99
2016-08-03T04:03:44.226Z,99.99
2016-08-03T04:04:44.251Z,99.99
2016-08-03T04:05:44.276Z,99.99
2016-08-03T04:06:44.308Z,99.99
2016-08-03T04:07:44.332Z,99.99
2016-08-03T04:08:44.355Z,99.99
2016-08-03T04:09:44.386Z,99.99
2016-08-03T04:10:44.411Z,99.99
2016-08-03T04:11:44.433Z,99.99
2016-08-03T04:13:44.482Z,99.99
2016-08-03T04:14:44.510Z,99.99
2016-08-03T04:15:44.543Z,99.99
2016-08-03T04:16:44.562Z,99.99
2016-08-03T04:17:44.586Z,99.99
2016-08-03T04:18:44.613Z,99.99
2016-08-03T04:19:44.637Z,99.99
2016-08-03T04:20:44.665Z,99.99
2016-08-03T04:21:44.689Z,99.99
2016-08-03T04:22:44.712Z,99.99
2016-08-03T04:23:44.738Z,99.99
2016-08-03T04:24:44.766Z,99.99
2016-08-03T04:25:44.788Z,99.99
2016-08-03T04:26:44.815Z,99.99
2016-08-03T04:27:59.815Z,99.99
2016-08-03T04:28:44.870Z,99.99
2016-08-03T04:29:44.891Z,99.99
2016-08-03T04:31:44.939Z,99.99
2016-08-03T04:32:44.971Z,99.99
2016-08-03T04:33:45.001Z,99.99
2016-08-03T04:34:45.028Z,99.99
2016-08-03T04:35:45.044Z,99.99
2016-08-03T04:36:45.070Z,99.99
2016-08-03T04:37:45.099Z,99.99
2016-08-03T04:38:45.123Z,99.99
2016-08-03T04:39:45.148Z,99.99
2016-08-03T04:40:45.178Z,99.99
2016-08-03T04:41:45.203Z,99.99
2016-08-03T04:42:45.229Z,99.99
2016-08-03T04:44:00.177Z,99.99
2016-08-03T04:44:45.284Z,99.99
2016-08-03T04:45:45.305Z,99.99
2016-08-03T04:46:45.336Z,99.99
2016-08-03T04:47:45.354Z,99.99
2016-08-03T04:48:45.380Z,99.99
2016-08-03T04:49:45.408Z,99.99
2016-08-03T04:50:45.435Z,99.99
2016-08-03T04:51:45.458Z,99.99
2016-08-03T04:52:45.486Z,99.99
2016-08-03T04:53:46.210Z,99.99
2016-08-03T04:56:45.587Z,99.99
2016-08-03T04:57:45.615Z,99.99
2016-08-03T04:58:45.642Z,99.99
2016-08-03T05:00:00.589Z,99.99
2016-08-03T05:00:45.695Z,99.99
2016-08-03T05:01:45.719Z,99.99
2016-08-03T05:02:45.749Z,99.99
2016-08-03T05:03:45.766Z,99.99
2016-08-03T05:04:45.793Z,99.99
2016-08-03T05:05:45.823Z,99.68
2016-08-03T05:06:45.851Z,99.2
2016-08-03T05:07:45.870Z,98.72
2016-08-03T05:08:45.902Z,98.14
2016-08-03T05:09:45.925Z,98.29
2016-08-03T05:10:45.948Z,97.86
2016-08-03T05:11:45.975Z,97.14
2016-08-03T05:12:46.006Z,96.85
2016-08-03T05:13:46.034Z,97.33
2016-08-03T05:14:46.058Z,96.37
2016-08-03T05:16:01.006Z,96.56
2016-08-03T05:16:46.109Z,96.75
2016-08-03T05:17:46.143Z,95.98
2016-08-03T05:18:46.158Z,96.08
2016-08-03T05:19:46.188Z,96.27
2016-08-03T05:20:46.214Z,96.18
2016-08-03T05:21:46.238Z,95.98
2016-08-03T05:22:46.264Z,96.37
2016-08-03T05:23:46.295Z,96.18
2016-08-03T05:24:46.319Z,96.66
2016-08-03T05:25:46.338Z,96.37
2016-08-03T05:26:46.367Z,96.47
2016-08-03T05:27:46.395Z,96.18
2016-08-03T05:29:46.447Z,95.6
2016-08-03T05:31:01.401Z,95.41
2016-08-03T05:31:46.555Z,96.47
2016-08-03T05:32:46.574Z,95.79
2016-08-03T05:33:46.552Z,96.18
2016-08-03T05:34:46.583Z,96.18
2016-08-03T05:35:46.609Z,96.18
2016-08-03T05:36:46.628Z,96.18
2016-08-03T05:37:46.662Z,96.56
2016-08-03T05:38:46.692Z,96.27
2016-08-03T05:39:46.711Z,96.08
2016-08-03T05:40:46.735Z,96.94
2016-08-03T05:41:46.764Z,96.47
2016-08-03T05:43:46.813Z,96.51
2016-08-03T05:44:46.839Z,96.99
2016-08-03T05:45:46.865Z,96.51
2016-08-03T05:46:46.895Z,96.56
2016-08-03T05:48:46.946Z,97.28
2016-08-03T05:49:46.975Z,96.61
2016-08-03T05:50:46.999Z,96.89
2016-08-03T05:51:47.025Z,96.99
2016-08-03T05:52:47.051Z,97.19
2016-08-03T05:53:47.080Z,97.09
2016-08-03T05:54:47.101Z,96.7
2016-08-03T05:55:47.134Z,97.09
2016-08-03T05:56:47.155Z,97.14
2016-08-03T05:57:47.179Z,96.94
2016-08-03T05:58:47.207Z,96.56
2016-08-03T05:59:47.235Z,96.66
2016-08-03T06:00:47.256Z,96.66
2016-08-03T06:01:47.286Z,96.56
2016-08-03T06:03:02.234Z,95.94
2016-08-03T06:03:47.334Z,95.5
2016-08-03T06:04:47.363Z,95.17
2016-08-03T06:05:47.391Z,95.17
2016-08-03T06:06:47.416Z,95.75
2016-08-03T06:07:47.443Z,95.26
2016-08-03T06:08:47.466Z,94.98
2016-08-03T06:09:47.497Z,94.88
2016-08-03T06:10:47.520Z,94.98
2016-08-03T06:11:47.549Z,93.58
2016-08-03T06:12:47.573Z,93.29
2016-08-03T06:13:47.602Z,93.19
2016-08-03T06:14:47.633Z,92.91
2016-08-03T06:15:47.655Z,93.39
2016-08-03T06:17:47.703Z,92.14
2016-08-03T06:19:02.653Z,92.91
2016-08-03T06:19:47.756Z,91.8
2016-08-03T06:20:47.782Z,92.72
2016-08-03T06:21:47.810Z,92.19
2016-08-03T06:22:47.842Z,92.09
2016-08-03T06:23:47.863Z,91.99
2016-08-03T06:24:47.889Z,91.42
2016-08-03T06:25:47.910Z,91.03
2016-08-03T06:26:47.943Z,90.45
2016-08-03T06:27:47.964Z,91.03
2016-08-03T06:28:47.993Z,91.03
2016-08-03T06:29:48.020Z,91.28
2016-08-03T06:30:48.051Z,91.32
2016-08-03T06:31:48.076Z,91.22
2016-08-03T06:32:48.097Z,90.84
2016-08-03T06:33:48.870Z,90.94
2016-08-03T06:35:03.125Z,91.13
2016-08-03T06:35:48.181Z,91.75
2016-08-03T06:36:48.207Z,90.36
2016-08-03T06:37:48.233Z,90.45
2016-08-03T06:38:48.257Z,90.84
2016-08-03T06:39:48.287Z,90.45
2016-08-03T06:40:48.312Z,90.55
2016-08-03T06:41:48.340Z,90.45
2016-08-03T06:42:48.365Z,89.21
2016-08-03T06:43:48.394Z,89.5
2016-08-03T06:44:48.416Z,89.5
2016-08-03T06:45:48.446Z,89.01
2016-08-03T06:47:48.498Z,89.35
2016-08-03T06:48:48.528Z,88.67
2016-08-03T06:49:48.552Z,88.1
2016-08-03T06:51:03.501Z,88
2016-08-03T06:51:48.602Z,88.29
2016-08-03T06:52:48.632Z,88.48
2016-08-03T06:53:48.656Z,87.81
2016-08-03T06:54:48.687Z,88.39
2016-08-03T06:55:48.714Z,88.29
2016-08-03T06:56:48.741Z,87.46
2016-08-03T06:57:48.763Z,87.76
2016-08-03T06:58:48.794Z,86.99
2016-08-03T06:59:48.815Z,87.27
2016-08-03T07:00:48.853Z,86.51
2016-08-03T07:01:48.870Z,86.69
2016-08-03T07:02:48.895Z,86.79
2016-08-03T07:03:48.923Z,87.27
2016-08-03T07:06:03.904Z,85.93
2016-08-03T07:06:49.003Z,86.51
2016-08-03T07:07:49.038Z,85.83
2016-08-03T07:08:49.062Z,86.31
2016-08-03T07:09:49.089Z,85.54
2016-08-03T07:10:49.116Z,86.6
2016-08-03T07:11:49.139Z,85.74
2016-08-03T07:12:49.167Z,86.12
2016-08-03T07:13:49.194Z,85.83
2016-08-03T07:14:49.218Z,86.22
2016-08-03T07:15:49.250Z,86.31
2016-08-03T07:16:49.277Z,86.79
2016-08-03T07:18:49.327Z,85.78
2016-08-03T07:19:49.351Z,85.78
2016-08-03T07:20:49.393Z,85.3
2016-08-03T07:21:49.408Z,85.39
2016-08-03T07:22:49.437Z,85.1
2016-08-03T07:23:49.461Z,85.39
2016-08-03T07:24:49.493Z,84.91
2016-08-03T07:25:49.521Z,84.53
2016-08-03T07:26:49.546Z,84.91
2016-08-03T07:27:49.573Z,84.86
2016-08-03T07:28:49.602Z,84.09
2016-08-03T07:29:49.623Z,83.89
2016-08-03T07:30:49.652Z,83.7
2016-08-03T07:31:49.684Z,83.89
2016-08-03T07:32:49.702Z,83.7
2016-08-03T07:33:49.933Z,83.22
2016-08-03T07:34:49.758Z,82.87
2016-08-03T07:35:49.786Z,82.59
2016-08-03T07:38:04.766Z,82.39
2016-08-03T07:38:49.920Z,81.62
2016-08-03T07:39:49.898Z,81.72
2016-08-03T07:40:49.925Z,81.81
2016-08-03T07:41:50.655Z,82.2
2016-08-03T07:42:49.983Z,81.14
2016-08-03T07:43:50.009Z,80.85
2016-08-03T07:44:50.036Z,81.33
2016-08-03T07:45:50.059Z,81.24
2016-08-03T07:46:50.089Z,81.33
2016-08-03T07:47:50.118Z,80.85
2016-08-03T07:48:50.144Z,81.52
2016-08-03T07:49:50.169Z,82.49
2016-08-03T07:50:50.200Z,82.68
2016-08-03T07:51:50.226Z,81.33
2016-08-03T07:52:50.255Z,81.62
2016-08-03T07:54:05.205Z,81.81
2016-08-03T07:56:50.361Z,82.29
2016-08-03T07:57:50.392Z,81.91
2016-08-03T07:58:50.420Z,82.1
2016-08-03T07:59:50.447Z,81.52
2016-08-03T08:00:50.482Z,81.52
2016-08-03T08:01:50.510Z,82.2
2016-08-03T08:02:50.525Z,82.01
2016-08-03T08:03:50.554Z,80.89
2016-08-03T08:04:50.587Z,80.79
2016-08-03T08:07:50.668Z,80.6
2016-08-03T08:08:50.695Z,80.22
2016-08-03T08:10:05.643Z,80.41
2016-08-03T08:10:50.748Z,80.41
2016-08-03T08:11:50.789Z,80.35
2016-08-03T08:12:50.806Z,78.96
2016-08-03T08:13:50.829Z,79.19
2016-08-03T08:14:50.856Z,79.35
2016-08-03T08:15:50.884Z,80.41
2016-08-03T08:16:50.909Z,80.02
2016-08-03T08:17:50.937Z,80.51
2016-08-03T08:18:50.964Z,80.79
2016-08-03T08:19:50.994Z,81.52
2016-08-03T08:22:51.078Z,82.78
2016-08-03T08:23:51.101Z,82.59
2016-08-03T08:24:51.136Z,82.87
2016-08-03T08:26:06.081Z,82.2
2016-08-03T08:26:51.189Z,82.68
2016-08-03T08:27:51.214Z,82.68
2016-08-03T08:28:51.244Z,83.36
2016-08-03T08:29:51.271Z,82.87
2016-08-03T08:30:51.299Z,84.28
2016-08-03T08:31:51.321Z,83.22
2016-08-03T08:32:51.348Z,83.22
2016-08-03T08:33:51.375Z,83.61
2016-08-03T08:34:51.409Z,84.28
2016-08-03T08:35:51.434Z,83.89
2016-08-03T08:36:51.460Z,83.8
2016-08-03T08:37:51.486Z,84.28
2016-08-03T08:38:51.518Z,84.56
2016-08-03T08:39:51.541Z,84.86
2016-08-03T08:41:06.493Z,83.61
2016-08-03T08:41:51.600Z,84.66
2016-08-03T08:43:51.652Z,84.47
2016-08-03T08:44:51.678Z,85.24
2016-08-03T08:46:51.733Z,85.05
2016-08-03T08:47:51.765Z,84.95
2016-08-03T08:48:51.791Z,85.72
2016-08-03T08:49:51.819Z,85.43
2016-08-03T08:50:51.842Z,86.4
2016-08-03T08:51:51.869Z,86.11
2016-08-03T08:52:51.897Z,85.58
2016-08-03T08:53:51.936Z,85.53
2016-08-03T08:54:51.955Z,85.91
2016-08-03T08:55:51.979Z,86.21
2016-08-03T08:56:52.004Z,86.59
2016-08-03T08:58:52.064Z,86.88
2016-08-03T08:59:52.086Z,86.88
2016-08-03T09:01:52.142Z,86.21
2016-08-03T09:02:52.169Z,86.78
2016-08-03T09:03:52.204Z,86.78
2016-08-03T09:04:52.228Z,87.94
2016-08-03T09:05:52.251Z,87.94
2016-08-03T09:06:52.277Z,88.71
2016-08-03T09:07:52.315Z,88.67
2016-08-03T09:08:52.335Z,88.09
2016-08-03T09:09:52.355Z,88.95
2016-08-03T09:10:52.387Z,88.95
2016-08-03T09:11:52.413Z,89.05
2016-08-03T09:13:07.364Z,88.57
2016-08-03T09:13:52.466Z,88.76
2016-08-03T09:14:52.491Z,89.92
2016-08-03T09:15:52.526Z,89.34
2016-08-03T09:16:52.547Z,88.76
2016-08-03T09:17:52.578Z,89.24
2016-08-03T09:18:52.641Z,89.63
2016-08-03T09:19:52.627Z,88.47
2016-08-03T09:20:52.659Z,88.57
2016-08-03T09:21:52.689Z,88.47
2016-08-03T09:22:52.711Z,87.8
2016-08-03T09:23:52.741Z,87.6
2016-08-03T09:25:52.797Z,87.46
2016-08-03T09:26:52.824Z,87.07
2016-08-03T09:27:52.844Z,86.98
2016-08-03T09:29:07.802Z,87.07
2016-08-03T09:29:52.904Z,86.15
2016-08-03T09:30:52.933Z,87.3
2016-08-03T09:31:52.962Z,86.92
2016-08-03T09:32:52.984Z,86.35
2016-08-03T09:33:53.011Z,85.67
2016-08-03T09:34:53.041Z,84.8
2016-08-03T09:35:53.077Z,85.47
2016-08-03T09:36:53.093Z,84.8
2016-08-03T09:37:53.121Z,84.99
2016-08-03T09:38:53.853Z,86.63
2016-08-03T09:39:53.180Z,86.25
2016-08-03T09:41:53.229Z,85.96
2016-08-03T09:42:53.256Z,86.15
2016-08-03T09:43:53.288Z,86.54
2016-08-03T09:45:08.236Z,86.73
2016-08-03T09:45:53.390Z,86.44
2016-08-03T09:46:53.367Z,86.92
2016-08-03T09:47:53.393Z,86.63
2016-08-03T09:48:53.419Z,86.82
2016-08-03T09:49:53.449Z,87.5
2016-08-03T09:50:53.482Z,86.92
2016-08-03T09:51:53.509Z,87.02
2016-08-03T09:52:53.530Z,87.7
2016-08-03T09:53:53.562Z,87.21
2016-08-03T09:54:53.587Z,87.4
2016-08-03T09:55:53.617Z,87.12
2016-08-03T09:56:53.644Z,86.92
2016-08-03T09:58:53.702Z,87.21
2016-08-03T09:59:53.720Z,87.5
2016-08-03T10:01:53.779Z,86.39
2016-08-03T10:02:53.813Z,85.61
2016-08-03T10:03:53.838Z,85.91
2016-08-03T10:04:53.858Z,86.1
2016-08-03T10:05:53.893Z,86.29
2016-08-03T10:06:53.916Z,85.61
2016-08-03T10:07:53.943Z,85.91
2016-08-03T10:08:53.975Z,85.42
2016-08-03T10:09:53.996Z,86.04
2016-08-03T10:10:54.031Z,85.61
2016-08-03T10:11:54.057Z,84.89
2016-08-03T10:12:54.080Z,84.98
2016-08-03T10:13:54.110Z,84.41
2016-08-03T10:14:54.140Z,84.11
2016-08-03T10:16:09.092Z,84.01
2016-08-03T10:16:54.193Z,84.41
2016-08-03T10:17:54.221Z,83.44
2016-08-03T10:18:54.249Z,83.53
2016-08-03T10:19:54.274Z,83.78
2016-08-03T10:20:54.302Z,84.21
2016-08-03T10:21:54.334Z,83.53
2016-08-03T10:22:54.361Z,83.44
2016-08-03T10:23:54.390Z,82.23
2016-08-03T10:24:54.416Z,82.13
2016-08-03T10:25:54.443Z,82.13
2016-08-03T10:26:54.478Z,81.74
2016-08-03T10:27:54.506Z,81.45
2016-08-03T10:28:54.524Z,81.45
2016-08-03T10:29:54.556Z,82.23
2016-08-03T10:30:54.585Z,81.74
2016-08-03T10:31:54.610Z,82.13
2016-08-03T10:33:54.670Z,81.93
2016-08-03T10:34:54.695Z,82.23
2016-08-03T10:35:54.727Z,81.74
2016-08-03T10:36:54.748Z,82.65
2016-08-03T10:37:54.778Z,81.59
2016-08-03T10:38:54.813Z,81.01
2016-08-03T10:39:54.837Z,80.91
2016-08-03T10:40:54.860Z,81.11
2016-08-03T10:41:54.895Z,79.47
2016-08-03T10:42:54.921Z,80.24
2016-08-03T10:43:54.945Z,80.28
2016-08-03T10:44:54.978Z,79.02
2016-08-03T10:45:55.006Z,79.22
2016-08-03T10:46:55.034Z,78.64
2016-08-03T10:48:09.983Z,78.15
2016-08-03T10:48:55.088Z,78.73
2016-08-03T10:49:55.120Z,78.77
2016-08-03T10:50:55.194Z,77.9
2016-08-03T10:51:55.225Z,78.38
2016-08-03T10:53:55.231Z,78.25
2016-08-03T10:54:55.256Z,78.06
2016-08-03T10:55:55.289Z,78.48
2016-08-03T10:56:55.318Z,77.71
2016-08-03T10:57:55.342Z,77.71
2016-08-03T10:58:55.371Z,77.51
2016-08-03T10:59:55.404Z,78.92
2016-08-03T11:00:55.431Z,78.92
2016-08-03T11:02:55.482Z,79.08
2016-08-03T11:04:10.441Z,79.37
2016-08-03T11:04:55.546Z,79.47
2016-08-03T11:05:55.570Z,80.43
2016-08-03T11:06:55.601Z,79.47
2016-08-03T11:07:55.632Z,79.95
2016-08-03T11:08:55.653Z,78.83
2016-08-03T11:09:55.682Z,80.28
2016-08-03T11:10:55.712Z,78.44
2016-08-03T11:11:55.747Z,77.71
2016-08-03T11:12:55.769Z,77.03
2016-08-03T11:13:55.800Z,78.19
2016-08-03T11:14:55.829Z,75.81
2016-08-03T11:15:55.854Z,75.81
2016-08-03T11:16:55.883Z,75.75
2016-08-03T11:17:55.917Z,75.37
2016-08-03T11:18:55.946Z,75.07
2016-08-03T11:20:10.895Z,74.4
2016-08-03T11:21:56.726Z,75.23
2016-08-03T11:22:56.061Z,75.13
2016-08-03T11:23:56.090Z,75.43
2016-08-03T11:24:56.110Z,75.62
2016-08-03T11:25:56.146Z,75.23
2016-08-03T11:26:56.168Z,75.62
2016-08-03T11:27:56.196Z,75.58
2016-08-03T11:28:56.233Z,75.48
2016-08-03T11:29:56.275Z,77.32
2016-08-03T11:30:56.284Z,75.97
2016-08-03T11:31:56.314Z,75.68
2016-08-03T11:32:56.351Z,75.81
2016-08-03T11:33:56.374Z,75.81
2016-08-03T11:34:56.405Z,76.01
2016-08-03T11:36:11.356Z,75.62
2016-08-03T11:36:56.463Z,75.46
2016-08-03T11:37:56.488Z,74.94
2016-08-03T11:38:56.514Z,75.43
2016-08-03T11:39:56.547Z,75.62
2016-08-03T11:40:57.267Z,75.04
2016-08-03T11:41:56.605Z,76.1
2016-08-03T11:42:56.630Z,75.62
2016-08-03T11:43:56.665Z,75.33
2016-08-03T11:44:56.696Z,76.29
2016-08-03T11:45:56.720Z,75.52
2016-08-03T11:46:56.749Z,75.91
2016-08-03T11:47:56.776Z,75.68
2016-08-03T11:48:56.807Z,75.68
2016-08-03T11:49:56.836Z,76.2
2016-08-03T11:51:11.787Z,76.01
2016-08-03T11:51:56.947Z,75.81
2016-08-03T11:52:56.921Z,75.62
2016-08-03T11:53:56.951Z,75.62
2016-08-03T11:54:57.031Z,75.23
2016-08-03T11:55:57.010Z,75.37
2016-08-03T11:56:57.036Z,75.43
2016-08-03T11:57:57.067Z,76.01
2016-08-03T11:58:57.092Z,76.78
2016-08-03T11:59:57.122Z,76.59
2016-08-03T12:00:57.153Z,76.16
2016-08-03T12:01:57.180Z,77.51
2016-08-03T12:02:57.211Z,77.61
2016-08-03T12:03:57.236Z,77.32
2016-08-03T12:04:57.263Z,77.32
2016-08-03T12:06:57.325Z,78.73
2016-08-03T12:07:57.358Z,78.06
2016-08-03T12:08:57.383Z,78.83
2016-08-03T12:09:57.414Z,78.89
2016-08-03T12:10:57.438Z,78.44
2016-08-03T12:11:57.472Z,78.73
2016-08-03T12:12:57.496Z,78.83
2016-08-03T12:13:57.525Z,79.56
2016-08-03T12:14:57.549Z,79.66
2016-08-03T12:15:57.582Z,79.56
2016-08-03T12:16:57.607Z,79.27
2016-08-03T12:17:57.649Z,80.24
2016-08-03T12:18:57.668Z,80.24
2016-08-03T12:19:57.692Z,80.91
2016-08-03T12:20:57.728Z,80.91
2016-08-03T12:21:57.749Z,81.11
2016-08-03T12:23:12.704Z,81.55
2016-08-03T12:23:57.808Z,81.59
2016-08-03T12:24:57.837Z,81.98
2016-08-03T12:25:57.860Z,82.23
2016-08-03T12:26:57.889Z,81.68
2016-08-03T12:27:57.919Z,81.78
2016-08-03T12:28:57.958Z,81.4
2016-08-03T12:29:57.977Z,81.84
2016-08-03T12:30:58.007Z,81.59
2016-08-03T12:31:58.035Z,80.91
2016-08-03T12:32:58.065Z,79.85
2016-08-03T12:33:58.093Z,80.33
2016-08-03T12:34:58.124Z,79.37
2016-08-03T12:35:58.153Z,79.12
2016-08-03T12:36:58.176Z,78.92
2016-08-03T12:37:58.206Z,78.06
2016-08-03T12:39:13.158Z,77.61
2016-08-03T12:39:58.263Z,77.32
2016-08-03T12:40:58.296Z,78.09
2016-08-03T12:41:58.323Z,77.51
2016-08-03T12:42:58.353Z,77.22
2016-08-03T12:43:58.374Z,77.22
2016-08-03T12:44:58.414Z,77.22
2016-08-03T12:45:58.434Z,76.29
2016-08-03T12:46:58.464Z,76.2
2016-08-03T12:47:58.488Z,76.39
2016-08-03T12:48:58.519Z,75.91
2016-08-03T12:50:58.575Z,74.88
2016-08-03T12:51:58.603Z,74.53
2016-08-03T12:52:58.684Z,73.69
2016-08-03T12:53:58.666Z,73.31
2016-08-03T12:55:13.663Z,71.95
2016-08-03T12:55:58.736Z,71.41
2016-08-03T12:56:58.752Z,71.41
2016-08-03T12:57:58.781Z,70.37
2016-08-03T12:58:58.807Z,71.12
2016-08-03T12:59:58.891Z,70.25
2016-08-03T13:00:58.870Z,70.15
2016-08-03T13:01:58.900Z,71.02
2016-08-03T13:02:58.926Z,71.7
2016-08-03T13:03:58.953Z,71.56
2016-08-03T13:04:58.980Z,71.95
2016-08-03T13:05:59.011Z,72.63
2016-08-03T13:07:59.082Z,73.08
2016-08-03T13:08:59.117Z,73.37
2016-08-03T13:09:59.129Z,73.47
2016-08-03T13:11:14.086Z,72.53
2016-08-03T13:11:59.189Z,72.44
2016-08-03T13:12:59.231Z,71.8
2016-08-03T13:13:59.248Z,70.34
2016-08-03T13:14:59.323Z,69.99
2016-08-03T13:15:59.306Z,70.67
2016-08-03T13:16:59.333Z,68.47
2016-08-03T13:17:59.364Z,68.37
2016-08-03T13:18:59.397Z,68.51
2016-08-03T13:19:59.425Z,68.79
2016-08-03T13:20:59.452Z,66.89
2016-08-03T13:21:59.483Z,67.34
2016-08-03T13:22:59.515Z,67.44
2016-08-03T13:23:59.544Z,67.63
2016-08-03T13:24:59.571Z,66.17
2016-08-03T13:26:14.527Z,67.44
2016-08-03T13:26:59.633Z,66.72
2016-08-03T13:27:59.668Z,67.79
2016-08-03T13:28:59.692Z,67.6
2016-08-03T13:29:59.729Z,67.89
2016-08-03T13:30:59.755Z,68.08
2016-08-03T13:31:59.783Z,66.82
2016-08-03T13:32:59.814Z,66.53
2016-08-03T13:33:59.843Z,67.4
2016-08-03T13:34:59.874Z,67.31
2016-08-03T13:36:59.932Z,66.82
2016-08-03T13:37:59.964Z,67.47
2016-08-03T13:40:00.023Z,68.24
2016-08-03T13:41:00.055Z,67.47